Time;durP1;ratioP1;P1;durP2;ratioP2;P2;SDS_P1;SDS_P2;PMS_P1;PMS_P2;Temp;Humidity;BMP_temperature;BMP_pressure;BME280_temperature;BME280_humidity;BME280_pressure;Samples;Min_cycle;Max_cycle;Signal;HPM_P1;HPM_P2
2021/12/17 00:00:46;;;;;;;25.13;13.30;;;15.30;83.70;;;;;;5144028;27;45350;-74
2021/12/17 00:03:20;;;;;;;22.38;12.93;;;15.30;83.50;;;;;;5137890;27;48271;-74
2021/12/17 00:06:06;;;;;;;23.23;12.35;;;15.30;84.10;;;;;;5143570;27;45401;-74
2021/12/17 00:08:35;;;;;;;22.70;12.55;;;15.40;83.40;;;;;;5137293;27;45288;-74
2021/12/17 00:11:03;;;;;;;24.27;12.80;;;15.40;83.50;;;;;;5147684;27;45391;-75
2021/12/17 00:13:30;;;;;;;20.27;12.23;;;15.50;82.90;;;;;;5144986;27;47034;-74
2021/12/17 00:15:59;;;;;;;20.80;12.77;;;15.50;82.30;;;;;;5143996;27;45340;-75
2021/12/17 00:18:33;;;;;;;26.23;11.80;;;15.50;83.60;;;;;;5141535;27;46347;-75
2021/12/17 00:48:37;;;;;;;22.33;11.88;;;15.40;83.20;;;;;;5134915;27;45108;-75
2021/12/17 00:53:57;;;;;;;20.40;11.60;;;15.40;82.40;;;;;;5110161;27;45186;-74
2021/12/17 00:56:25;;;;;;;19.58;11.80;;;15.40;82.90;;;;;;5144214;27;45510;-74
2021/12/17 00:58:52;;;;;;;23.45;12.90;;;15.50;82.80;;;;;;5147569;27;45309;-75
2021/12/17 01:01:20;;;;;;;19.75;11.95;;;15.40;82.60;;;;;;5138002;27;45285;-74
2021/12/17 01:03:49;;;;;;;23.42;12.68;;;15.30;82.90;;;;;;5128427;27;45239;-74
2021/12/17 01:06:17;;;;;;;21.10;11.70;;;15.40;82.30;;;;;;5146963;27;47308;-75
2021/12/17 01:08:44;;;;;;;19.23;11.65;;;15.40;81.90;;;;;;5145195;27;45213;-74
2021/12/17 01:11:11;;;;;;;20.15;11.00;;;15.50;82.20;;;;;;5145361;27;45146;-74
2021/12/17 01:13:41;;;;;;;21.75;12.00;;;15.40;82.50;;;;;;5153166;27;45595;-74
2021/12/17 01:16:09;;;;;;;22.45;12.35;;;15.50;82.00;;;;;;5147136;27;45462;-74
2021/12/17 01:18:47;;;;;;;22.98;13.00;;;15.40;81.90;;;;;;5143127;27;45372;-74
2021/12/17 01:21:30;;;;;;;18.90;11.57;;;15.50;81.90;;;;;;5142267;27;45454;-74
2021/12/17 01:24:16;;;;;;;21.98;13.35;;;15.50;82.10;;;;;;5141106;27;45609;-75
2021/12/17 01:41:03;;;;;;;24.35;13.10;;;15.30;82.60;;;;;;5143699;27;45356;-75
2021/12/17 01:43:38;;;;;;;21.55;12.40;;;15.10;83.70;;;;;;5140660;27;45339;-74
2021/12/17 01:46:06;;;;;;;19.52;11.45;;;15.10;83.50;;;;;;5148712;27;45550;-74
2021/12/17 01:48:50;;;;;;;23.27;13.20;;;15.20;83.20;;;;;;5148914;27;46174;-74
2021/12/17 01:56:58;;;;;;;23.65;12.45;;;15.20;83.00;;;;;;5139168;27;45188;-75
2021/12/17 01:59:33;;;;;;;20.25;11.68;;;15.20;83.20;;;;;;5148036;27;45187;-74
2021/12/17 02:02:04;;;;;;;20.00;12.15;;;15.30;82.40;;;;;;5149673;27;45563;-74
2021/12/17 02:04:33;;;;;;;21.08;12.05;;;15.40;82.00;;;;;;5141458;27;45282;-74
2021/12/17 02:07:01;;;;;;;20.25;12.23;;;15.40;82.00;;;;;;5153057;27;45505;-74
2021/12/17 02:32:23;;;;;;;21.63;11.88;;;15.50;81.40;;;;;;5145991;27;45430;-75
2021/12/17 02:35:04;;;;;;;21.48;12.43;;;15.30;82.00;;;;;;5145582;27;45700;-74
2021/12/17 02:37:34;;;;;;;23.38;12.38;;;15.40;82.20;;;;;;5147041;27;45229;-74
2021/12/17 02:40:15;;;;;;;22.30;13.38;;;15.40;82.40;;;;;;5143314;27;46447;-74
2021/12/17 02:45:39;;;;;;;23.23;12.85;;;15.40;82.20;;;;;;5060414;28;45367;-74
2021/12/17 02:48:08;;;;;;;20.85;12.13;;;15.40;82.10;;;;;;5118438;27;45398;-74
2021/12/17 02:50:39;;;;;;;21.70;12.25;;;15.40;82.10;;;;;;5139615;27;45347;-74
2021/12/17 02:53:08;;;;;;;22.08;12.43;;;15.60;81.20;;;;;;5157848;27;47203;-74
2021/12/17 02:55:37;;;;;;;25.38;13.20;;;15.60;81.00;;;;;;5155271;27;45234;-74
2021/12/17 02:58:05;;;;;;;24.50;12.70;;;15.40;81.90;;;;;;5147986;27;45301;-74
2021/12/17 03:00:33;;;;;;;27.70;13.30;;;15.30;82.60;;;;;;5146446;27;45391;-74
2021/12/17 03:03:02;;;;;;;22.52;12.95;;;15.50;81.70;;;;;;5148491;27;47119;-74
2021/12/17 03:05:29;;;;;;;26.58;12.85;;;15.50;81.70;;;;;;5134516;27;45124;-75
2021/12/17 03:07:56;;;;;;;25.92;13.90;;;15.40;82.20;;;;;;5149093;27;45331;-75
2021/12/17 03:10:26;;;;;;;25.83;13.60;;;15.50;81.90;;;;;;5144920;27;45490;-74
2021/12/17 03:12:57;;;;;;;24.27;13.32;;;15.30;82.70;;;;;;5142439;27;46224;-74
2021/12/17 03:15:33;;;;;;;20.63;12.45;;;15.50;82.00;;;;;;5151260;27;45282;-74
2021/12/17 03:23:39;;;;;;;23.48;13.18;;;15.30;82.60;;;;;;5136876;27;45849;-74
2021/12/17 03:26:09;;;;;;;24.83;12.73;;;15.10;83.90;;;;;;5147640;27;45173;-74
2021/12/17 03:28:37;;;;;;;23.48;12.70;;;15.20;83.90;;;;;;5151909;27;45279;-74
2021/12/17 03:31:05;;;;;;;24.50;12.43;;;15.20;83.50;;;;;;5151002;27;45362;-74
2021/12/17 03:33:33;;;;;;;25.40;13.43;;;15.10;83.50;;;;;;5151464;27;47467;-74
2021/12/17 03:36:00;;;;;;;24.30;12.80;;;15.10;84.10;;;;;;5147903;27;45444;-74
2021/12/17 03:38:28;;;;;;;23.40;13.52;;;15.20;83.70;;;;;;5151793;27;45605;-74
2021/12/17 03:41:09;;;;;;;22.95;12.60;;;15.30;82.90;;;;;;5150734;27;45446;-74
2021/12/17 03:43:37;;;;;;;24.25;13.05;;;15.40;82.50;;;;;;5150740;27;45471;-75
2021/12/17 03:46:04;;;;;;;24.67;13.27;;;15.40;82.70;;;;;;5144491;27;45206;-74
2021/12/17 03:48:35;;;;;;;23.77;13.15;;;15.60;81.90;;;;;;5132827;27;45161;-74
2021/12/17 03:51:02;;;;;;;22.60;12.25;;;15.50;81.70;;;;;;5135878;27;45208;-74
2021/12/17 03:53:29;;;;;;;24.30;13.65;;;15.60;81.70;;;;;;5144473;27;45273;-74
2021/12/17 03:55:56;;;;;;;24.42;13.20;;;15.60;81.40;;;;;;5149900;27;45644;-74
2021/12/17 03:58:22;;;;;;;25.45;14.35;;;15.70;80.90;;;;;;5147483;27;45186;-74
2021/12/17 04:00:51;;;;;;;24.25;13.60;;;15.60;81.00;;;;;;5136106;27;45181;-74
2021/12/17 04:03:17;;;;;;;25.15;14.00;;;15.60;81.50;;;;;;5145008;27;46059;-74
2021/12/17 04:05:44;;;;;;;24.83;13.82;;;15.60;81.00;;;;;;5144828;27;45177;-74
2021/12/17 04:08:11;;;;;;;24.60;13.93;;;15.40;82.00;;;;;;5145821;27;45229;-74
2021/12/17 04:10:43;;;;;;;28.90;14.60;;;15.30;82.80;;;;;;5135225;27;45470;-74
2021/12/17 04:13:28;;;;;;;24.13;13.57;;;15.40;82.60;;;;;;5148665;27;47341;-74
2021/12/17 04:16:00;;;;;;;24.10;13.20;;;15.40;83.10;;;;;;5150965;27;45609;-74
2021/12/17 04:18:27;;;;;;;22.40;12.80;;;15.10;85.40;;;;;;5140623;27;45309;-74
2021/12/17 04:20:54;;;;;;;27.88;15.88;;;15.30;84.90;;;;;;5155465;27;45330;-74
2021/12/17 04:23:21;;;;;;;25.27;13.40;;;15.30;84.20;;;;;;5147984;27;46636;-74
2021/12/17 04:25:50;;;;;;;26.60;14.77;;;15.20;85.40;;;;;;5146695;27;45408;-74
2021/12/17 04:28:18;;;;;;;25.55;14.07;;;14.90;86.80;;;;;;5148427;27;45261;-74
2021/12/17 04:30:45;;;;;;;24.58;13.15;;;15.00;86.60;;;;;;5143602;27;45512;-74
2021/12/17 04:33:15;;;;;;;24.10;13.57;;;15.10;85.80;;;;;;5142231;27;47506;-74
2021/12/17 04:35:42;;;;;;;24.33;13.50;;;15.30;85.00;;;;;;5150010;27;45289;-74
2021/12/17 04:38:10;;;;;;;22.73;13.60;;;15.50;84.10;;;;;;5150125;27;45216;-74
2021/12/17 04:40:41;;;;;;;27.40;14.13;;;15.50;83.60;;;;;;5140652;27;45890;-74
2021/12/17 04:43:19;;;;;;;25.45;13.23;;;15.50;83.80;;;;;;5148144;27;48171;-74
2021/12/17 04:45:56;;;;;;;24.98;13.80;;;15.70;83.00;;;;;;5157764;27;45982;-74
2021/12/17 04:59:21;;;;;;;26.35;14.68;;;15.40;84.20;;;;;;5147689;27;45227;-74
2021/12/17 05:01:49;;;;;;;28.55;14.90;;;14.90;87.50;;;;;;5145509;27;45506;-74
2021/12/17 05:04:19;;;;;;;26.65;14.48;;;14.80;87.90;;;;;;5143129;27;47193;-74
2021/12/17 05:06:45;;;;;;;36.35;17.17;;;14.80;88.30;;;;;;5148963;27;46482;-75
2021/12/17 05:09:24;;;;;;;29.25;14.85;;;14.70;88.90;;;;;;5150139;27;45155;-75
2021/12/17 05:20:17;;;;;;;29.98;16.08;;;14.90;89.60;;;;;;5115044;27;45221;-74
2021/12/17 05:22:44;;;;;;;32.60;16.50;;;15.10;89.40;;;;;;5121676;27;45412;-74
2021/12/17 05:25:11;;;;;;;31.20;16.50;;;14.90;89.10;;;;;;5122186;27;45269;-75
2021/12/17 05:27:37;;;;;;;25.17;15.30;;;14.90;89.80;;;;;;5124170;27;45382;-75
2021/12/17 05:30:05;;;;;;;27.58;14.77;;;14.80;90.20;;;;;;5121193;27;45505;-75
2021/12/17 05:32:32;;;;;;;29.38;16.05;;;15.00;90.10;;;;;;5119634;27;45459;-75
2021/12/17 05:34:59;;;;;;;24.85;13.65;;;15.10;89.10;;;;;;5118616;27;46893;-75
2021/12/17 05:37:27;;;;;;;28.33;15.95;;;15.10;89.70;;;;;;5120647;27;45387;-75
2021/12/17 05:39:54;;;;;;;32.42;17.40;;;15.10;88.80;;;;;;5126810;27;45429;-78
2021/12/17 05:42:22;;;;;;;29.08;15.27;;;15.20;87.70;;;;;;5118575;27;45360;-75
2021/12/17 05:44:55;;;;;;;30.50;15.88;;;15.30;86.40;;;;;;5126187;27;47594;-75
2021/12/17 05:47:22;;;;;;;33.22;18.23;;;15.40;85.50;;;;;;5121715;27;45312;-75
2021/12/17 05:49:49;;;;;;;29.07;15.80;;;15.20;86.00;;;;;;5127408;27;45250;-75
2021/12/17 05:52:15;;;;;;;32.08;17.92;;;15.20;85.60;;;;;;5125459;27;45159;-75
2021/12/17 05:54:44;;;;;;;32.67;16.80;;;15.20;85.50;;;;;;5124675;27;46225;-75
2021/12/17 05:57:10;;;;;;;31.83;17.10;;;15.30;85.60;;;;;;5120406;27;45332;-75
2021/12/17 05:59:37;;;;;;;34.53;17.13;;;15.40;86.20;;;;;;5125846;27;45277;-76
2021/12/17 06:02:10;;;;;;;26.65;15.25;;;15.20;86.60;;;;;;5120432;27;45482;-76
2021/12/17 06:04:37;;;;;;;31.83;16.02;;;15.10;88.00;;;;;;5120710;27;47537;-75
2021/12/17 06:07:05;;;;;;;29.85;14.95;;;15.20;87.50;;;;;;5115285;27;46088;-75
2021/12/17 06:09:32;;;;;;;30.27;15.88;;;15.20;87.10;;;;;;5121232;27;45407;-78
2021/12/17 06:12:00;;;;;;;28.65;15.07;;;15.20;86.90;;;;;;5112769;27;45267;-75
2021/12/17 06:14:27;;;;;;;34.13;16.30;;;15.20;87.20;;;;;;5121621;27;47040;-75
2021/12/17 06:16:53;;;;;;;26.50;15.38;;;15.10;88.40;;;;;;5123368;27;45274;-75
2021/12/17 06:19:20;;;;;;;28.92;15.38;;;15.20;87.80;;;;;;5120601;27;45201;-75
2021/12/17 06:21:48;;;;;;;34.15;16.13;;;15.30;87.10;;;;;;5119690;27;45502;-75
2021/12/17 06:24:15;;;;;;;29.10;15.52;;;15.40;86.80;;;;;;5126061;27;47386;-75
2021/12/17 06:26:42;;;;;;;29.30;16.08;;;15.30;87.10;;;;;;5118147;27;45246;-75
2021/12/17 06:29:10;;;;;;;31.10;16.10;;;15.30;87.20;;;;;;5108810;27;45212;-75
2021/12/17 06:31:36;;;;;;;29.92;15.73;;;15.30;87.30;;;;;;5127803;27;45132;-75
2021/12/17 06:34:03;;;;;;;29.17;15.27;;;15.50;86.20;;;;;;5115187;27;46266;-75
2021/12/17 06:36:30;;;;;;;27.83;14.82;;;15.40;86.90;;;;;;5123060;27;45788;-75
2021/12/17 06:38:57;;;;;;;31.65;15.77;;;15.20;87.40;;;;;;5120263;27;45359;-75
2021/12/17 06:41:24;;;;;;;30.58;16.08;;;15.10;88.50;;;;;;5116655;27;45444;-75
2021/12/17 06:43:50;;;;;;;29.38;15.52;;;15.10;88.40;;;;;;5124115;27;47193;-75
2021/12/17 06:46:24;;;;;;;32.40;16.25;;;15.40;87.00;;;;;;5126842;27;45396;-75
2021/12/17 06:48:57;;;;;;;31.73;16.15;;;15.20;87.10;;;;;;5119021;27;45185;-75
2021/12/17 06:59:55;;;;;;;29.75;15.00;;;15.40;86.60;;;;;;5123609;27;45310;-75
2021/12/17 07:08:51;;;;;;;33.10;16.45;;;15.10;87.80;;;;;;5129211;27;45379;-76
2021/12/17 07:10:53;;;;;;;32.75;15.43;;;15.00;89.10;;;;;;5110805;27;45356;-76
2021/12/17 07:21:55;;;;;;;29.42;16.25;;;15.30;87.50;;;;;;5130639;27;45250;-76
2021/12/17 07:24:51;;;;;;;34.90;18.13;;;15.10;88.70;;;;;;5126869;27;45335;-76
2021/12/17 07:32:52;;;;;;;31.90;15.02;;;14.70;90.20;;;;;;5115246;27;45338;-76
2021/12/17 07:35:44;;;;;;;28.77;15.00;;;14.60;90.80;;;;;;5124181;27;45223;-77
2021/12/17 07:40:56;;;;;;;32.53;15.55;;;14.80;90.40;;;;;;5123275;27;45374;-77
2021/12/17 07:43:30;;;;;;;32.55;16.13;;;14.50;90.80;;;;;;5110966;27;45196;-77
2021/12/17 07:45:58;;;;;;;32.00;15.65;;;14.50;90.70;;;;;;5123606;27;45480;-77
2021/12/17 07:48:26;;;;;;;26.75;13.95;;;14.60;90.90;;;;;;5116650;27;46492;-77
2021/12/17 07:50:54;;;;;;;29.63;15.15;;;14.50;91.10;;;;;;5120321;27;45433;-77
2021/12/17 07:53:21;;;;;;;32.65;15.52;;;14.50;91.00;;;;;;5130676;27;45220;-76
2021/12/17 07:55:48;;;;;;;32.88;14.95;;;14.40;91.00;;;;;;5130683;27;45449;-76
2021/12/17 07:58:15;;;;;;;31.27;15.05;;;14.50;91.00;;;;;;5122144;27;47007;-77
2021/12/17 08:00:42;;;;;;;29.30;14.70;;;14.50;91.20;;;;;;5129904;27;45509;-77
2021/12/17 08:03:11;;;;;;;31.20;14.05;;;14.60;91.10;;;;;;5130332;27;45183;-77
2021/12/17 08:05:38;;;;;;;30.60;14.38;;;14.80;90.20;;;;;;5123695;27;45174;-77
2021/12/17 08:08:06;;;;;;;31.38;13.63;;;14.70;90.40;;;;;;5118734;27;48332;-77
2021/12/17 08:10:33;;;;;;;28.48;14.00;;;14.70;90.60;;;;;;5113699;27;46376;-77
2021/12/17 08:13:00;;;;;;;30.15;13.93;;;14.80;90.40;;;;;;5121430;27;46743;-77
2021/12/17 08:15:32;;;;;;;29.75;13.38;;;14.90;90.40;;;;;;5126156;27;45337;-77
2021/12/17 08:18:21;;;;;;;27.55;12.98;;;14.90;90.00;;;;;;5115974;27;47383;-77
2021/12/17 08:26:22;;;;;;;28.60;12.05;;;15.20;88.40;;;;;;5122656;27;45214;-77
2021/12/17 08:29:24;;;;;;;25.90;12.63;;;15.20;88.00;;;;;;5110719;27;46182;-77
2021/12/17 08:31:50;;;;;;;26.17;12.88;;;15.20;88.70;;;;;;5124925;27;45323;-76
2021/12/17 08:34:17;;;;;;;33.05;13.20;;;15.20;88.00;;;;;;5112172;27;45334;-76
2021/12/17 08:36:44;;;;;;;26.85;13.18;;;15.10;88.40;;;;;;5117552;27;45552;-76
2021/12/17 08:39:13;;;;;;;31.25;13.57;;;14.90;89.70;;;;;;5122766;27;47457;-76
2021/12/17 08:41:40;;;;;;;25.00;12.57;;;15.00;88.70;;;;;;5121356;27;45219;-76
2021/12/17 08:44:08;;;;;;;26.33;13.40;;;15.10;88.40;;;;;;5115320;27;45226;-76
2021/12/17 08:46:35;;;;;;;31.40;13.63;;;15.20;87.70;;;;;;5121649;27;45153;-76
2021/12/17 08:49:02;;;;;;;29.58;13.45;;;15.20;88.10;;;;;;5120893;27;47851;-76
2021/12/17 08:51:30;;;;;;;30.42;13.82;;;15.20;87.70;;;;;;5122092;27;45257;-76
2021/12/17 08:53:56;;;;;;;28.92;13.18;;;15.20;87.80;;;;;;5117879;27;45272;-76
2021/12/17 08:56:29;;;;;;;30.08;13.55;;;15.20;87.80;;;;;;5119037;27;45357;-76
2021/12/17 08:58:55;;;;;;;34.83;14.73;;;15.00;88.50;;;;;;5121248;27;47411;-77
2021/12/17 09:01:22;;;;;;;32.10;14.60;;;14.90;89.60;;;;;;5117994;27;45266;-76
2021/12/17 09:03:49;;;;;;;34.20;14.50;;;14.90;89.50;;;;;;5115286;27;45221;-76
2021/12/17 09:06:16;;;;;;;34.22;14.25;;;15.10;87.80;;;;;;5121839;27;45176;-76
2021/12/17 09:08:43;;;;;;;31.38;14.50;;;15.30;87.50;;;;;;5125970;27;47027;-76
2021/12/17 09:11:10;;;;;;;40.58;14.90;;;15.30;87.40;;;;;;5129274;27;45295;-76
2021/12/17 09:13:39;;;;;;;34.13;15.23;;;15.10;87.70;;;;;;5128925;27;45397;-76
2021/12/17 09:16:07;;;;;;;36.28;13.73;;;15.20;87.60;;;;;;5125702;27;45380;-76
2021/12/17 09:18:34;;;;;;;34.58;15.60;;;15.00;88.50;;;;;;5115945;27;47380;-77
2021/12/17 09:21:01;;;;;;;36.90;14.95;;;15.00;88.90;;;;;;5108890;27;45204;-77
2021/12/17 09:23:28;;;;;;;36.25;14.93;;;15.10;88.40;;;;;;5123739;27;45161;-77
2021/12/17 09:25:55;;;;;;;42.50;17.23;;;15.20;87.40;;;;;;5127730;27;45433;-77
2021/12/17 09:28:22;;;;;;;37.20;15.65;;;15.10;88.10;;;;;;5124630;27;46571;-76
2021/12/17 09:30:51;;;;;;;34.75;15.90;;;15.00;89.40;;;;;;5129455;27;45177;-76
2021/12/17 09:33:17;;;;;;;38.92;15.48;;;15.20;87.20;;;;;;5114467;27;45225;-77
2021/12/17 09:35:44;;;;;;;36.25;15.50;;;15.20;87.80;;;;;;5124650;27;45191;-77
2021/12/17 09:38:11;;;;;;;34.05;14.70;;;15.10;87.90;;;;;;5110539;27;46155;-77
2021/12/17 09:40:38;;;;;;;40.15;15.93;;;15.30;87.30;;;;;;5122474;27;45472;-77
2021/12/17 09:43:05;;;;;;;33.15;14.18;;;15.20;88.10;;;;;;5123669;27;45338;-76
2021/12/17 09:45:32;;;;;;;35.08;15.70;;;15.40;86.90;;;;;;5122837;27;45360;-76
2021/12/17 09:48:02;;;;;;;37.78;16.02;;;15.40;87.10;;;;;;5118325;27;46397;-76
2021/12/17 09:50:29;;;;;;;42.08;16.25;;;15.30;87.00;;;;;;5114879;27;45247;-77
2021/12/17 09:52:57;;;;;;;37.97;17.00;;;15.40;86.90;;;;;;5121331;27;45182;-77
2021/12/17 09:55:24;;;;;;;32.55;13.32;;;15.40;86.40;;;;;;5125760;27;45490;-77
2021/12/17 09:57:52;;;;;;;30.85;14.10;;;15.30;87.30;;;;;;5108317;27;46244;-77
2021/12/17 10:00:21;;;;;;;35.72;14.93;;;15.30;87.40;;;;;;5126039;27;45426;-77
2021/12/17 10:02:49;;;;;;;35.75;15.52;;;15.20;87.80;;;;;;5120822;27;45288;-76
2021/12/17 10:05:23;;;;;;;36.58;15.02;;;15.30;87.60;;;;;;5126608;27;45134;-76
2021/12/17 10:07:55;;;;;;;36.38;15.13;;;15.70;87.50;;;;;;5123671;27;48074;-77
2021/12/17 10:10:22;;;;;;;37.30;15.93;;;15.10;88.40;;;;;;5127973;27;45216;-77
2021/12/17 10:12:53;;;;;;;35.60;14.18;;;15.00;88.60;;;;;;5123682;27;45799;-77
2021/12/17 10:15:21;;;;;;;38.72;16.42;;;15.20;88.60;;;;;;5123400;27;45148;-77
2021/12/17 10:17:52;;;;;;;37.97;15.95;;;15.10;88.50;;;;;;5123333;27;45394;-77
2021/12/17 10:20:22;;;;;;;34.05;15.32;;;15.10;88.20;;;;;;5126813;27;45405;-77
2021/12/17 10:22:56;;;;;;;38.72;16.83;;;15.30;87.70;;;;;;5114182;27;45219;-77
2021/12/17 10:25:23;;;;;;;42.20;16.15;;;15.40;86.70;;;;;;5111913;27;45273;-77
2021/12/17 10:27:57;;;;;;;34.33;14.73;;;15.30;87.50;;;;;;5118962;27;47392;-76
2021/12/17 10:30:24;;;;;;;33.95;16.42;;;15.30;87.40;;;;;;5122390;27;46415;-77
2021/12/17 10:32:53;;;;;;;35.45;15.88;;;15.30;87.30;;;;;;5115137;27;45379;-77
2021/12/17 10:35:23;;;;;;;36.03;15.85;;;15.40;87.10;;;;;;5118556;27;45373;-77
2021/12/17 10:37:55;;;;;;;35.38;15.85;;;15.20;88.50;;;;;;5127477;27;47514;-76
2021/12/17 10:40:25;;;;;;;37.65;15.35;;;15.20;88.40;;;;;;5125617;27;45155;-77
2021/12/17 10:43:00;;;;;;;38.90;16.65;;;15.30;87.80;;;;;;5119972;27;45346;-76
2021/12/17 10:45:29;;;;;;;35.65;15.57;;;15.10;88.50;;;;;;5113943;27;45305;-76
2021/12/17 10:48:21;;;;;;;40.20;15.63;;;15.20;88.00;;;;;;5121467;27;46459;-77
2021/12/17 10:50:50;;;;;;;36.25;16.30;;;15.50;86.90;;;;;;5130840;27;45663;-76
2021/12/17 10:53:21;;;;;;;37.00;15.63;;;15.40;86.70;;;;;;5112260;27;45255;-77
2021/12/17 10:55:48;;;;;;;34.85;14.57;;;15.30;87.50;;;;;;5116068;27;45247;-77
2021/12/17 10:58:15;;;;;;;36.20;15.65;;;15.20;88.00;;;;;;5121197;27;45249;-77
2021/12/17 11:00:50;;;;;;;37.05;16.05;;;15.20;88.20;;;;;;5121432;27;45238;-76
2021/12/17 11:03:17;;;;;;;33.75;14.68;;;15.20;88.20;;;;;;5112304;27;45272;-76
2021/12/17 11:05:44;;;;;;;36.65;16.05;;;15.30;88.00;;;;;;5112798;27;45429;-76
2021/12/17 11:08:28;;;;;;;39.38;16.35;;;15.20;88.40;;;;;;5110884;27;46871;-76
2021/12/17 11:11:06;;;;;;;37.47;15.75;;;15.30;87.70;;;;;;5121635;27;45258;-76
2021/12/17 11:13:33;;;;;;;36.03;14.50;;;15.30;87.90;;;;;;5130194;27;45273;-76
2021/12/17 11:16:00;;;;;;;32.38;15.13;;;15.30;87.70;;;;;;5130286;27;45136;-76
2021/12/17 11:18:28;;;;;;;37.22;15.98;;;15.20;88.30;;;;;;5126390;27;45457;-76
2021/12/17 11:20:56;;;;;;;30.00;14.38;;;15.20;88.50;;;;;;5118606;27;45269;-77
2021/12/17 11:23:27;;;;;;;31.38;15.18;;;15.20;87.70;;;;;;5124606;27;45264;-76
2021/12/17 11:25:54;;;;;;;34.92;15.05;;;15.10;88.60;;;;;;5131033;27;45508;-76
2021/12/17 11:28:23;;;;;;;34.50;15.27;;;15.10;89.00;;;;;;5126076;27;46511;-76
2021/12/17 11:30:52;;;;;;;33.60;15.38;;;15.30;88.10;;;;;;5118733;27;45214;-76
2021/12/17 11:33:19;;;;;;;35.97;15.23;;;15.20;88.50;;;;;;5110485;27;45206;-76
2021/12/17 11:35:49;;;;;;;33.20;14.75;;;15.10;89.10;;;;;;5119412;27;45382;-76
2021/12/17 11:38:21;;;;;;;34.17;14.93;;;15.30;88.40;;;;;;5131037;27;46422;-76
2021/12/17 11:40:53;;;;;;;30.80;14.82;;;15.30;88.30;;;;;;5130510;27;45185;-76
2021/12/17 11:43:37;;;;;;;31.65;14.90;;;15.20;88.70;;;;;;5130139;27;45238;-76
2021/12/17 11:46:05;;;;;;;30.20;14.73;;;15.10;89.30;;;;;;5131147;27;45230;-77
2021/12/17 11:48:35;;;;;;;35.72;16.02;;;14.90;90.00;;;;;;5120046;27;47644;-76
2021/12/17 11:51:10;;;;;;;31.08;14.52;;;14.90;90.10;;;;;;5120031;27;45572;-77
2021/12/17 11:53:43;;;;;;;30.70;15.20;;;14.90;90.20;;;;;;5121447;27;45193;-77
2021/12/17 11:56:11;;;;;;;31.73;14.30;;;15.00;90.10;;;;;;5129462;27;45379;-76
2021/12/17 11:58:53;;;;;;;33.83;15.57;;;15.00;90.00;;;;;;5125949;27;46009;-77
2021/12/17 12:01:48;;;;;;;31.70;15.73;;;14.90;90.20;;;;;;5117516;27;45360;-77
2021/12/17 12:04:38;;;;;;;33.47;14.27;;;14.90;90.20;;;;;;5119635;27;45192;-77
2021/12/17 12:07:08;;;;;;;32.40;14.20;;;15.20;89.60;;;;;;5116578;27;45311;-77
2021/12/17 12:09:55;;;;;;;32.03;15.52;;;15.10;89.80;;;;;;5130862;27;47484;-77
2021/12/17 12:12:28;;;;;;;31.33;14.45;;;15.00;90.20;;;;;;5121033;27;45190;-77
2021/12/17 12:15:16;;;;;;;34.63;14.88;;;15.00;90.20;;;;;;5127216;27;46823;-77
2021/12/17 12:18:07;;;;;;;35.60;15.20;;;15.10;90.20;;;;;;5128526;27;45455;-77
2021/12/17 12:21:04;;;;;;;29.38;14.30;;;15.00;90.30;;;;;;5121390;27;46487;-77
2021/12/17 12:23:43;;;;;;;32.85;14.82;;;15.10;90.20;;;;;;5115674;27;45297;-77
2021/12/17 12:26:41;;;;;;;30.30;14.18;;;15.10;90.20;;;;;;5121335;27;45267;-77
2021/12/17 12:29:11;;;;;;;32.50;15.35;;;15.10;90.10;;;;;;5128446;27;45325;-76
2021/12/17 12:32:11;;;;;;;26.95;13.38;;;15.10;90.00;;;;;;5125187;27;46207;-76
2021/12/17 12:34:41;;;;;;;30.27;15.10;;;15.20;90.40;;;;;;5119377;27;45252;-76
2021/12/17 12:37:27;;;;;;;28.42;13.40;;;15.10;90.10;;;;;;5121906;27;45238;-77
2021/12/17 12:40:16;;;;;;;28.90;13.48;;;15.10;90.10;;;;;;5126252;27;45483;-76
2021/12/17 12:42:50;;;;;;;28.05;13.43;;;15.00;90.40;;;;;;5122229;27;46184;-77
2021/12/17 12:45:18;;;;;;;27.02;12.75;;;15.00;90.40;;;;;;5118618;27;45804;-76
2021/12/17 12:47:50;;;;;;;25.95;13.27;;;15.00;90.20;;;;;;5118769;27;45278;-77
2021/12/17 12:50:19;;;;;;;27.98;14.10;;;15.00;90.40;;;;;;5118828;27;45562;-76
2021/12/17 12:52:48;;;;;;;28.42;14.02;;;15.00;90.20;;;;;;5120518;27;46430;-78
2021/12/17 12:55:18;;;;;;;22.02;11.85;;;14.90;90.60;;;;;;5124336;27;45854;-77
2021/12/17 12:57:48;;;;;;;32.42;14.63;;;15.00;90.40;;;;;;5123237;27;45204;-76
2021/12/17 13:00:19;;;;;;;30.20;14.38;;;15.10;90.40;;;;;;5121380;27;45373;-75
2021/12/17 13:02:51;;;;;;;27.80;14.65;;;15.00;90.40;;;;;;5121402;27;46404;-75
2021/12/17 13:05:18;;;;;;;30.35;14.82;;;15.10;90.20;;;;;;5125601;27;45499;-75
2021/12/17 13:07:48;;;;;;;31.98;15.63;;;15.10;90.30;;;;;;5120220;27;45465;-75
2021/12/17 13:10:18;;;;;;;25.00;14.27;;;15.20;90.00;;;;;;5127006;27;45472;-75
2021/12/17 13:12:51;;;;;;;29.50;15.20;;;15.20;90.00;;;;;;5116637;27;45215;-75
2021/12/17 13:15:37;;;;;;;29.52;15.65;;;15.00;90.30;;;;;;5123122;27;45784;-75
2021/12/17 13:21:02;;;;;;;28.42;14.63;;;15.10;90.10;;;;;;5129102;27;45340;-75
2021/12/17 13:23:32;;;;;;;26.92;14.32;;;15.00;90.30;;;;;;5128491;27;45347;-75
2021/12/17 13:26:08;;;;;;;27.38;15.20;;;15.10;90.30;;;;;;5127852;27;45246;-75
2021/12/17 13:29:06;;;;;;;29.08;14.95;;;15.10;90.20;;;;;;5127229;27;45270;-75
2021/12/17 13:31:52;;;;;;;25.30;13.85;;;15.00;90.50;;;;;;5070841;27;45393;-75
2021/12/17 13:34:30;;;;;;;26.58;13.68;;;15.00;90.30;;;;;;5128221;27;46434;-75
2021/12/17 13:37:08;;;;;;;25.05;14.25;;;15.00;90.50;;;;;;5129324;27;45157;-76
2021/12/17 13:39:37;;;;;;;23.35;13.45;;;15.00;90.30;;;;;;5129246;27;45192;-76
2021/12/17 13:42:06;;;;;;;22.73;13.80;;;15.10;90.00;;;;;;5128725;27;45357;-76
2021/12/17 13:44:41;;;;;;;26.25;14.32;;;15.40;89.10;;;;;;5127688;27;48223;-76
2021/12/17 13:47:15;;;;;;;29.90;14.15;;;15.20;89.60;;;;;;5126465;27;45250;-76
2021/12/17 13:49:45;;;;;;;26.20;13.50;;;15.10;90.10;;;;;;5128274;27;46110;-76
2021/12/17 13:52:12;;;;;;;26.75;13.90;;;15.20;89.80;;;;;;5110285;27;45315;-76
2021/12/17 13:54:39;;;;;;;23.45;13.48;;;15.10;90.00;;;;;;5116292;27;45488;-76
2021/12/17 13:57:11;;;;;;;24.30;13.32;;;15.10;89.90;;;;;;5129107;27;45258;-76
2021/12/17 13:59:38;;;;;;;23.48;12.93;;;15.20;89.90;;;;;;5127991;27;45213;-76
2021/12/17 14:02:13;;;;;;;21.58;13.15;;;15.20;89.70;;;;;;5127858;27;45366;-76
2021/12/17 14:04:41;;;;;;;23.52;13.48;;;15.30;89.10;;;;;;5127828;27;45241;-76
2021/12/17 14:07:09;;;;;;;22.83;12.65;;;15.10;89.70;;;;;;5128019;27;45499;-76
2021/12/17 14:09:36;;;;;;;22.20;12.93;;;15.20;89.20;;;;;;5127943;27;45647;-76
2021/12/17 14:12:12;;;;;;;23.15;13.82;;;15.20;89.40;;;;;;5129475;27;45446;-76
2021/12/17 14:14:39;;;;;;;21.15;12.35;;;14.90;90.10;;;;;;5126713;27;46547;-76
2021/12/17 14:17:09;;;;;;;18.85;12.45;;;15.30;88.70;;;;;;5120099;27;45405;-76
2021/12/17 14:19:43;;;;;;;20.52;11.80;;;15.40;88.50;;;;;;5128715;27;45110;-76
2021/12/17 14:22:24;;;;;;;16.92;10.45;;;15.10;89.60;;;;;;5127665;27;45539;-76
2021/12/17 14:24:51;;;;;;;20.48;12.55;;;15.40;88.20;;;;;;5127355;27;45424;-76
2021/12/17 14:27:18;;;;;;;21.77;12.73;;;15.30;88.80;;;;;;5125880;27;45866;-76
2021/12/17 14:29:44;;;;;;;19.95;12.13;;;15.00;89.50;;;;;;5128403;27;45198;-76
2021/12/17 14:32:16;;;;;;;20.00;11.63;;;14.90;90.30;;;;;;5125958;27;45285;-76
2021/12/17 14:34:45;;;;;;;16.95;11.07;;;14.90;90.30;;;;;;5128286;27;46739;-76
2021/12/17 14:37:12;;;;;;;18.42;11.30;;;15.10;89.50;;;;;;5128808;27;45270;-76
2021/12/17 14:39:44;;;;;;;18.10;11.07;;;15.10;89.60;;;;;;5128009;27;45101;-76
2021/12/17 14:42:13;;;;;;;18.23;10.68;;;15.10;89.70;;;;;;5128549;27;45306;-76
2021/12/17 14:44:51;;;;;;;17.52;11.25;;;15.20;89.40;;;;;;5128389;27;45487;-76
2021/12/17 14:47:24;;;;;;;19.48;11.68;;;15.30;88.40;;;;;;5126642;27;45448;-76
2021/12/17 15:01:11;;;;;;;14.02;8.70;;;15.20;88.60;;;;;;5127523;27;45310;-76
2021/12/17 15:03:42;;;;;;;12.73;9.02;;;15.20;88.20;;;;;;5127542;27;45278;-76
2021/12/17 15:06:12;;;;;;;15.98;8.93;;;15.30;87.50;;;;;;5131983;27;46988;-76
2021/12/17 15:08:39;;;;;;;11.93;8.88;;;15.40;87.00;;;;;;5130398;27;45400;-76
2021/12/17 15:11:14;;;;;;;12.60;8.48;;;15.40;87.70;;;;;;5132140;27;45288;-76
2021/12/17 15:13:41;;;;;;;11.05;7.60;;;15.40;86.80;;;;;;5130863;27;45355;-76
2021/12/17 15:16:09;;;;;;;10.88;7.70;;;15.30;86.40;;;;;;5130388;27;47558;-76
2021/12/17 15:18:37;;;;;;;11.00;8.23;;;15.10;87.90;;;;;;5130826;27;45289;-76